sensor_id;sensor_type;location;lat;lon;timestamp;P1;durP1;ratioP1;P2;durP2;ratioP2
67712;SDS011;67640;55.784;49.138;2023-04-03T00:00:47;14.17;;;4.30;;
67712;SDS011;67640;55.784;49.138;2023-04-03T00:06:06;12.53;;;4.03;;
67712;SDS011;67640;55.784;49.138;2023-04-03T00:11:25;12.40;;;4.07;;
67712;SDS011;67640;55.784;49.138;2023-04-03T00:16:44;14.90;;;4.15;;
67712;SDS011;67640;55.784;49.138;2023-04-03T00:21:49;14.43;;;4.58;;
67712;SDS011;67640;55.784;49.138;2023-04-03T00:26:55;17.93;;;4.70;;
67712;SDS011;67640;55.784;49.138;2023-04-03T00:32:14;12.58;;;4.67;;
67712;SDS011;67640;55.784;49.138;2023-04-03T00:37:31;13.20;;;4.70;;
67712;SDS011;67640;55.784;49.138;2023-04-03T00:42:37;14.37;;;4.63;;
67712;SDS011;67640;55.784;49.138;2023-04-03T00:47:56;18.23;;;5.37;;
67712;SDS011;67640;55.784;49.138;2023-04-03T00:53:18;14.87;;;4.50;;
67712;SDS011;67640;55.784;49.138;2023-04-03T01:09:58;10.18;;;3.83;;
67712;SDS011;67640;55.784;49.138;2023-04-03T01:15:06;13.13;;;4.75;;
67712;SDS011;67640;55.784;49.138;2023-04-03T01:26:04;17.17;;;4.50;;
67712;SDS011;67640;55.784;49.138;2023-04-03T01:37:11;8.77;;;4.00;;
67712;SDS011;67640;55.784;49.138;2023-04-03T01:42:16;12.13;;;4.28;;
67712;SDS011;67640;55.784;49.138;2023-04-03T01:47:34;10.23;;;3.80;;
67712;SDS011;67640;55.784;49.138;2023-04-03T01:52:39;14.37;;;4.10;;
67712;SDS011;67640;55.784;49.138;2023-04-03T01:58:09;14.13;;;4.10;;
67712;SDS011;67640;55.784;49.138;2023-04-03T02:03:14;13.88;;;4.10;;
67712;SDS011;67640;55.784;49.138;2023-04-03T02:08:33;13.70;;;4.10;;
67712;SDS011;67640;55.784;49.138;2023-04-03T02:13:52;12.90;;;4.05;;
67712;SDS011;67640;55.784;49.138;2023-04-03T02:19:11;13.50;;;4.55;;
67712;SDS011;67640;55.784;49.138;2023-04-03T02:24:31;13.83;;;4.50;;
67712;SDS011;67640;55.784;49.138;2023-04-03T02:29:36;20.52;;;4.10;;
67712;SDS011;67640;55.784;49.138;2023-04-03T02:34:42;14.00;;;4.40;;
67712;SDS011;67640;55.784;49.138;2023-04-03T02:39:47;11.50;;;4.40;;
67712;SDS011;67640;55.784;49.138;2023-04-03T02:45:06;14.78;;;4.22;;
67712;SDS011;67640;55.784;49.138;2023-04-03T02:50:26;12.27;;;3.97;;
67712;SDS011;67640;55.784;49.138;2023-04-03T02:55:30;10.45;;;4.30;;
67712;SDS011;67640;55.784;49.138;2023-04-03T03:00:49;17.60;;;4.75;;
67712;SDS011;67640;55.784;49.138;2023-04-03T03:11:20;14.35;;;4.58;;
67712;SDS011;67640;55.784;49.138;2023-04-03T03:16:39;18.10;;;6.15;;
67712;SDS011;67640;55.784;49.138;2023-04-03T03:21:58;18.05;;;3.30;;
67712;SDS011;67640;55.784;49.138;2023-04-03T03:27:17;16.50;;;2.77;;
67712;SDS011;67640;55.784;49.138;2023-04-03T03:32:23;11.90;;;2.57;;
67712;SDS011;67640;55.784;49.138;2023-04-03T03:37:42;11.73;;;2.70;;
67712;SDS011;67640;55.784;49.138;2023-04-03T03:42:47;12.43;;;2.52;;
67712;SDS011;67640;55.784;49.138;2023-04-03T03:48:06;10.37;;;2.20;;
67712;SDS011;67640;55.784;49.138;2023-04-03T03:53:25;17.07;;;2.70;;
67712;SDS011;67640;55.784;49.138;2023-04-03T03:58:44;18.05;;;2.67;;
67712;SDS011;67640;55.784;49.138;2023-04-03T04:04:03;10.47;;;2.13;;
67712;SDS011;67640;55.784;49.138;2023-04-03T04:09:08;18.45;;;3.35;;
67712;SDS011;67640;55.784;49.138;2023-04-03T04:14:13;7.53;;;2.17;;
67712;SDS011;67640;55.784;49.138;2023-04-03T04:19:31;9.73;;;2.10;;
67712;SDS011;67640;55.784;49.138;2023-04-03T04:24:36;13.48;;;2.22;;
67712;SDS011;67640;55.784;49.138;2023-04-03T04:29:55;12.10;;;2.40;;
67712;SDS011;67640;55.784;49.138;2023-04-03T04:35:00;10.00;;;2.08;;
67712;SDS011;67640;55.784;49.138;2023-04-03T04:40:20;14.10;;;2.83;;
67712;SDS011;67640;55.784;49.138;2023-04-03T04:45:40;10.93;;;2.00;;
67712;SDS011;67640;55.784;49.138;2023-04-03T04:50:45;15.95;;;2.50;;
67712;SDS011;67640;55.784;49.138;2023-04-03T04:56:16;9.15;;;1.75;;
67712;SDS011;67640;55.784;49.138;2023-04-03T05:01:21;9.10;;;1.90;;
67712;SDS011;67640;55.784;49.138;2023-04-03T05:06:27;15.43;;;2.25;;
67712;SDS011;67640;55.784;49.138;2023-04-03T05:11:47;9.53;;;2.10;;
67712;SDS011;67640;55.784;49.138;2023-04-03T05:16:52;17.13;;;2.20;;
67712;SDS011;67640;55.784;49.138;2023-04-03T05:22:11;16.40;;;2.08;;
67712;SDS011;67640;55.784;49.138;2023-04-03T05:27:17;7.70;;;1.67;;
67712;SDS011;67640;55.784;49.138;2023-04-03T05:32:35;11.30;;;1.70;;
67712;SDS011;67640;55.784;49.138;2023-04-03T05:37:41;12.03;;;1.98;;
67712;SDS011;67640;55.784;49.138;2023-04-03T05:42:46;14.13;;;1.40;;
67712;SDS011;67640;55.784;49.138;2023-04-03T05:48:05;14.37;;;1.43;;
67712;SDS011;67640;55.784;49.138;2023-04-03T05:58:36;8.33;;;1.92;;
67712;SDS011;67640;55.784;49.138;2023-04-03T06:03:55;13.03;;;1.40;;
67712;SDS011;67640;55.784;49.138;2023-04-03T06:09:23;7.77;;;1.80;;
67712;SDS011;67640;55.784;49.138;2023-04-03T06:14:29;16.97;;;2.27;;
67712;SDS011;67640;55.784;49.138;2023-04-03T06:19:48;10.00;;;1.70;;
67712;SDS011;67640;55.784;49.138;2023-04-03T06:25:07;7.95;;;1.55;;
67712;SDS011;67640;55.784;49.138;2023-04-03T06:30:27;7.40;;;1.90;;
67712;SDS011;67640;55.784;49.138;2023-04-03T06:35:46;10.83;;;2.90;;
67712;SDS011;67640;55.784;49.138;2023-04-03T06:40:51;17.10;;;1.60;;
67712;SDS011;67640;55.784;49.138;2023-04-03T06:45:56;8.73;;;1.60;;
67712;SDS011;67640;55.784;49.138;2023-04-03T06:51:02;9.48;;;2.22;;
67712;SDS011;67640;55.784;49.138;2023-04-03T06:56:22;25.15;;;2.40;;
67712;SDS011;67640;55.784;49.138;2023-04-03T07:01:41;20.30;;;3.80;;
67712;SDS011;67640;55.784;49.138;2023-04-03T07:06:47;12.55;;;2.12;;
67712;SDS011;67640;55.784;49.138;2023-04-03T07:11:52;22.83;;;3.07;;
67712;SDS011;67640;55.784;49.138;2023-04-03T07:16:57;9.38;;;1.40;;
67712;SDS011;67640;55.784;49.138;2023-04-03T07:22:03;10.82;;;1.57;;
67712;SDS011;67640;55.784;49.138;2023-04-03T07:27:24;18.77;;;3.13;;
67712;SDS011;67640;55.784;49.138;2023-04-03T07:32:43;10.72;;;2.25;;
67712;SDS011;67640;55.784;49.138;2023-04-03T07:37:48;16.03;;;2.13;;
67712;SDS011;67640;55.784;49.138;2023-04-03T07:42:53;19.12;;;2.45;;
67712;SDS011;67640;55.784;49.138;2023-04-03T07:47:59;11.10;;;1.80;;
67712;SDS011;67640;55.784;49.138;2023-04-03T07:53:18;13.90;;;2.40;;
67712;SDS011;67640;55.784;49.138;2023-04-03T07:58:37;21.35;;;2.92;;
67712;SDS011;67640;55.784;49.138;2023-04-03T08:03:56;11.47;;;1.70;;
67712;SDS011;67640;55.784;49.138;2023-04-03T08:09:03;11.33;;;1.60;;
67712;SDS011;67640;55.784;49.138;2023-04-03T08:14:08;11.30;;;1.55;;
67712;SDS011;67640;55.784;49.138;2023-04-03T08:19:14;10.63;;;1.60;;
67712;SDS011;67640;55.784;49.138;2023-04-03T08:24:33;7.65;;;2.08;;
67712;SDS011;67640;55.784;49.138;2023-04-03T08:29:52;9.43;;;1.33;;
67712;SDS011;67640;55.784;49.138;2023-04-03T08:34:57;16.42;;;3.62;;
67712;SDS011;67640;55.784;49.138;2023-04-03T08:40:05;11.50;;;2.00;;
67712;SDS011;67640;55.784;49.138;2023-04-03T08:51:04;10.53;;;2.80;;
67712;SDS011;67640;55.784;49.138;2023-04-03T08:56:24;12.40;;;2.77;;
67712;SDS011;67640;55.784;49.138;2023-04-03T09:01:43;17.98;;;2.40;;
67712;SDS011;67640;55.784;49.138;2023-04-03T09:06:49;16.75;;;2.27;;
67712;SDS011;67640;55.784;49.138;2023-04-03T09:22:58;13.38;;;1.42;;
67712;SDS011;67640;55.784;49.138;2023-04-03T09:28:17;12.93;;;1.50;;
67712;SDS011;67640;55.784;49.138;2023-04-03T09:33:36;16.15;;;1.50;;
67712;SDS011;67640;55.784;49.138;2023-04-03T09:38:43;8.27;;;1.00;;
67712;SDS011;67640;55.784;49.138;2023-04-03T09:49:45;18.07;;;2.00;;
67712;SDS011;67640;55.784;49.138;2023-04-03T09:54:50;17.53;;;1.43;;
67712;SDS011;67640;55.784;49.138;2023-04-03T10:05:42;15.80;;;1.70;;
67712;SDS011;67640;55.784;49.138;2023-04-03T10:10:47;17.87;;;2.90;;
67712;SDS011;67640;55.784;49.138;2023-04-03T10:16:07;15.88;;;1.32;;
67712;SDS011;67640;55.784;49.138;2023-04-03T10:32:43;16.65;;;1.20;;
67712;SDS011;67640;55.784;49.138;2023-04-03T11:00:25;6.05;;;0.93;;
67712;SDS011;67640;55.784;49.138;2023-04-03T11:11:08;13.85;;;0.82;;
67712;SDS011;67640;55.784;49.138;2023-04-03T11:16:28;13.93;;;1.70;;
67712;SDS011;67640;55.784;49.138;2023-04-03T11:21:51;15.98;;;1.45;;
67712;SDS011;67640;55.784;49.138;2023-04-03T11:27:11;15.23;;;1.20;;
67712;SDS011;67640;55.784;49.138;2023-04-03T11:37:58;22.50;;;1.80;;
67712;SDS011;67640;55.784;49.138;2023-04-03T11:48:58;12.68;;;1.10;;
67712;SDS011;67640;55.784;49.138;2023-04-03T11:59:42;24.23;;;1.22;;
67712;SDS011;67640;55.784;49.138;2023-04-03T12:05:24;16.25;;;0.98;;
67712;SDS011;67640;55.784;49.138;2023-04-03T12:10:14;10.60;;;1.20;;
67712;SDS011;67640;55.784;49.138;2023-04-03T12:26:20;21.27;;;1.93;;
67712;SDS011;67640;55.784;49.138;2023-04-03T12:53:16;12.37;;;1.20;;
67712;SDS011;67640;55.784;49.138;2023-04-03T12:58:35;18.03;;;1.63;;
67712;SDS011;67640;55.784;49.138;2023-04-03T13:03:56;24.87;;;2.62;;
67712;SDS011;67640;55.784;49.138;2023-04-03T13:09:01;20.70;;;2.50;;
67712;SDS011;67640;55.784;49.138;2023-04-03T13:14:21;15.58;;;2.12;;
67712;SDS011;67640;55.784;49.138;2023-04-03T13:19:47;19.00;;;1.55;;
67712;SDS011;67640;55.784;49.138;2023-04-03T13:24:54;27.83;;;1.90;;
67712;SDS011;67640;55.784;49.138;2023-04-03T13:30:01;20.17;;;2.30;;
67712;SDS011;67640;55.784;49.138;2023-04-03T13:41:01;24.77;;;1.70;;
67712;SDS011;67640;55.784;49.138;2023-04-03T13:51:46;11.93;;;0.87;;
67712;SDS011;67640;55.784;49.138;2023-04-03T14:02:31;26.02;;;1.20;;
67712;SDS011;67640;55.784;49.138;2023-04-03T14:07:51;21.37;;;1.30;;
67712;SDS011;67640;55.784;49.138;2023-04-03T14:12:56;21.82;;;2.40;;
67712;SDS011;67640;55.784;49.138;2023-04-03T14:18:02;27.17;;;2.57;;
67712;SDS011;67640;55.784;49.138;2023-04-03T14:23:19;10.50;;;1.63;;
67712;SDS011;67640;55.784;49.138;2023-04-03T14:28:24;20.48;;;1.40;;
67712;SDS011;67640;55.784;49.138;2023-04-03T14:33:29;23.15;;;1.75;;
67712;SDS011;67640;55.784;49.138;2023-04-03T14:38:49;33.47;;;4.30;;
67712;SDS011;67640;55.784;49.138;2023-04-03T14:44:08;22.40;;;3.17;;
67712;SDS011;67640;55.784;49.138;2023-04-03T14:49:27;36.07;;;2.93;;
67712;SDS011;67640;55.784;49.138;2023-04-03T14:54:33;31.33;;;3.20;;
67712;SDS011;67640;55.784;49.138;2023-04-03T14:59:58;37.35;;;2.33;;
67712;SDS011;67640;55.784;49.138;2023-04-03T15:05:15;26.13;;;3.07;;
67712;SDS011;67640;55.784;49.138;2023-04-03T15:10:22;33.35;;;3.37;;
67712;SDS011;67640;55.784;49.138;2023-04-03T15:15:41;25.70;;;3.10;;
67712;SDS011;67640;55.784;49.138;2023-04-03T15:21:00;28.80;;;2.97;;
67712;SDS011;67640;55.784;49.138;2023-04-03T15:26:19;31.97;;;4.10;;
67712;SDS011;67640;55.784;49.138;2023-04-03T15:31:38;32.90;;;3.17;;
67712;SDS011;67640;55.784;49.138;2023-04-03T15:36:44;41.68;;;3.45;;
67712;SDS011;67640;55.784;49.138;2023-04-03T15:41:51;22.93;;;3.00;;
67712;SDS011;67640;55.784;49.138;2023-04-03T15:46:57;44.37;;;3.43;;
67712;SDS011;67640;55.784;49.138;2023-04-03T15:52:17;27.48;;;3.20;;
67712;SDS011;67640;55.784;49.138;2023-04-03T15:57:34;29.20;;;3.83;;
67712;SDS011;67640;55.784;49.138;2023-04-03T16:02:40;33.37;;;4.30;;
67712;SDS011;67640;55.784;49.138;2023-04-03T16:07:45;39.23;;;4.17;;
67712;SDS011;67640;55.784;49.138;2023-04-03T16:12:50;34.75;;;4.50;;
67712;SDS011;67640;55.784;49.138;2023-04-03T16:18:22;45.80;;;5.20;;
67712;SDS011;67640;55.784;49.138;2023-04-03T16:23:27;41.85;;;5.53;;
67712;SDS011;67640;55.784;49.138;2023-04-03T16:28:46;37.05;;;5.12;;
67712;SDS011;67640;55.784;49.138;2023-04-03T16:34:05;37.13;;;4.27;;
67712;SDS011;67640;55.784;49.138;2023-04-03T16:39:26;30.50;;;5.92;;
67712;SDS011;67640;55.784;49.138;2023-04-03T16:44:47;30.37;;;5.57;;
67712;SDS011;67640;55.784;49.138;2023-04-03T16:49:52;37.73;;;4.87;;
67712;SDS011;67640;55.784;49.138;2023-04-03T16:54:57;44.23;;;5.15;;
67712;SDS011;67640;55.784;49.138;2023-04-03T17:00:02;37.53;;;4.80;;
67712;SDS011;67640;55.784;49.138;2023-04-03T17:05:36;34.63;;;5.53;;
67712;SDS011;67640;55.784;49.138;2023-04-03T17:10:41;27.30;;;4.42;;
67712;SDS011;67640;55.784;49.138;2023-04-03T17:16:00;36.43;;;4.10;;
67712;SDS011;67640;55.784;49.138;2023-04-03T17:21:08;40.65;;;4.37;;
67712;SDS011;67640;55.784;49.138;2023-04-03T17:26:27;26.17;;;3.47;;
67712;SDS011;67640;55.784;49.138;2023-04-03T17:31:49;29.53;;;3.70;;
67712;SDS011;67640;55.784;49.138;2023-04-03T17:36:55;28.92;;;3.70;;
67712;SDS011;67640;55.784;49.138;2023-04-03T17:42:01;27.77;;;3.42;;
67712;SDS011;67640;55.784;49.138;2023-04-03T17:47:06;25.40;;;3.37;;
67712;SDS011;67640;55.784;49.138;2023-04-03T17:52:25;30.72;;;3.47;;
67712;SDS011;67640;55.784;49.138;2023-04-03T17:57:44;32.87;;;3.30;;
67712;SDS011;67640;55.784;49.138;2023-04-03T18:08:14;28.02;;;2.92;;
67712;SDS011;67640;55.784;49.138;2023-04-03T18:13:19;31.63;;;3.40;;
67712;SDS011;67640;55.784;49.138;2023-04-03T18:18:40;16.87;;;2.43;;
67712;SDS011;67640;55.784;49.138;2023-04-03T18:24:10;19.50;;;2.30;;
67712;SDS011;67640;55.784;49.138;2023-04-03T18:29:14;28.53;;;3.87;;
67712;SDS011;67640;55.784;49.138;2023-04-03T18:34:41;29.17;;;2.80;;
67712;SDS011;67640;55.784;49.138;2023-04-03T18:39:46;40.00;;;2.83;;
67712;SDS011;67640;55.784;49.138;2023-04-03T18:45:05;21.57;;;3.20;;
67712;SDS011;67640;55.784;49.138;2023-04-03T18:50:24;20.70;;;3.30;;
67712;SDS011;67640;55.784;49.138;2023-04-03T18:55:44;21.17;;;2.55;;
67712;SDS011;67640;55.784;49.138;2023-04-03T19:01:03;24.10;;;3.23;;
67712;SDS011;67640;55.784;49.138;2023-04-03T19:06:08;33.28;;;4.10;;
67712;SDS011;67640;55.784;49.138;2023-04-03T19:11:57;33.50;;;2.85;;
67712;SDS011;67640;55.784;49.138;2023-04-03T19:16:47;19.43;;;2.90;;
67712;SDS011;67640;55.784;49.138;2023-04-03T19:22:06;25.75;;;3.00;;
67712;SDS011;67640;55.784;49.138;2023-04-03T19:27:25;44.67;;;4.65;;
67712;SDS011;67640;55.784;49.138;2023-04-03T19:32:44;41.97;;;6.43;;
67712;SDS011;67640;55.784;49.138;2023-04-03T19:38:04;56.13;;;7.42;;
67712;SDS011;67640;55.784;49.138;2023-04-03T19:43:10;67.70;;;8.27;;
67712;SDS011;67640;55.784;49.138;2023-04-03T19:48:15;42.60;;;6.83;;
67712;SDS011;67640;55.784;49.138;2023-04-03T19:53:34;32.70;;;7.12;;
67712;SDS011;67640;55.784;49.138;2023-04-03T19:58:54;50.80;;;8.93;;
67712;SDS011;67640;55.784;49.138;2023-04-03T20:04:13;54.60;;;8.60;;
67712;SDS011;67640;55.784;49.138;2023-04-03T20:09:30;52.10;;;6.00;;
67712;SDS011;67640;55.784;49.138;2023-04-03T20:14:36;54.87;;;7.30;;
67712;SDS011;67640;55.784;49.138;2023-04-03T20:19:42;62.80;;;9.80;;
67712;SDS011;67640;55.784;49.138;2023-04-03T20:25:04;62.38;;;8.63;;
67712;SDS011;67640;55.784;49.138;2023-04-03T20:30:10;42.87;;;8.50;;
67712;SDS011;67640;55.784;49.138;2023-04-03T20:35:16;62.65;;;8.15;;
67712;SDS011;67640;55.784;49.138;2023-04-03T20:40:35;62.65;;;7.55;;
67712;SDS011;67640;55.784;49.138;2023-04-03T20:45:54;53.53;;;7.57;;
67712;SDS011;67640;55.784;49.138;2023-04-03T20:56:33;45.67;;;8.68;;
67712;SDS011;67640;55.784;49.138;2023-04-03T21:01:38;54.70;;;7.13;;
67712;SDS011;67640;55.784;49.138;2023-04-03T21:23:25;47.08;;;6.72;;
67712;SDS011;67640;55.784;49.138;2023-04-03T21:28:44;40.03;;;5.85;;
67712;SDS011;67640;55.784;49.138;2023-04-03T21:34:05;45.53;;;5.83;;
67712;SDS011;67640;55.784;49.138;2023-04-03T21:39:10;45.98;;;5.72;;
67712;SDS011;67640;55.784;49.138;2023-04-03T21:44:29;22.20;;;4.17;;
67712;SDS011;67640;55.784;49.138;2023-04-03T21:49:34;34.37;;;4.87;;
67712;SDS011;67640;55.784;49.138;2023-04-03T21:55:06;34.03;;;4.90;;
67712;SDS011;67640;55.784;49.138;2023-04-03T22:00:12;34.18;;;4.28;;
67712;SDS011;67640;55.784;49.138;2023-04-03T22:05:44;21.82;;;2.60;;
67712;SDS011;67640;55.784;49.138;2023-04-03T22:10:49;23.57;;;3.13;;
67712;SDS011;67640;55.784;49.138;2023-04-03T22:15:54;34.35;;;3.62;;
67712;SDS011;67640;55.784;49.138;2023-04-03T22:21:13;27.30;;;4.00;;
67712;SDS011;67640;55.784;49.138;2023-04-03T22:26:32;43.92;;;5.72;;
67712;SDS011;67640;55.784;49.138;2023-04-03T22:31:52;67.03;;;7.40;;
67712;SDS011;67640;55.784;49.138;2023-04-03T22:37:11;45.03;;;5.43;;
67712;SDS011;67640;55.784;49.138;2023-04-03T22:42:16;45.80;;;5.85;;
67712;SDS011;67640;55.784;49.138;2023-04-03T22:47:21;49.97;;;7.00;;
67712;SDS011;67640;55.784;49.138;2023-04-03T22:53:00;55.13;;;8.80;;
67712;SDS011;67640;55.784;49.138;2023-04-03T22:58:18;81.90;;;9.87;;
67712;SDS011;67640;55.784;49.138;2023-04-03T23:03:23;85.92;;;10.58;;
67712;SDS011;67640;55.784;49.138;2023-04-03T23:08:28;70.27;;;11.43;;
67712;SDS011;67640;55.784;49.138;2023-04-03T23:13:47;87.47;;;12.93;;
67712;SDS011;67640;55.784;49.138;2023-04-03T23:18:53;82.02;;;13.75;;
67712;SDS011;67640;55.784;49.138;2023-04-03T23:24:13;97.80;;;13.37;;
67712;SDS011;67640;55.784;49.138;2023-04-03T23:29:17;86.35;;;14.23;;
67712;SDS011;67640;55.784;49.138;2023-04-03T23:34:22;84.40;;;15.13;;
67712;SDS011;67640;55.784;49.138;2023-04-03T23:39:39;84.20;;;16.23;;
67712;SDS011;67640;55.784;49.138;2023-04-03T23:44:45;104.55;;;15.30;;
67712;SDS011;67640;55.784;49.138;2023-04-03T23:50:04;65.62;;;11.80;;
67712;SDS011;67640;55.784;49.138;2023-04-03T23:55:23;84.07;;;14.23;;
